Terminal Aerodrome Forecast
Issued by NWS

Home | Current Version | Previous Version | Text Only | Print | Product List | Glossary On
Versions: 1 2 3 4 5 6 7 8 9 10 11 12 13 14 15 16 17 18 19 20 21 22 23 24
917
FTUS45 KGJT 202329
TAFASE
TAF
KASE 202329Z 2100/2124 34005KT P6SM SCT080 BKN200
     FM210400 18009KT P6SM FEW100 BKN200
     FM210900 20005KT P6SM SCT200
     FM211700 34005KT P6SM FEW080 SCT150=

USA.gov is the U.S. government's official web portal to all federal, state and local government web resources and services.